ULTRA CHOJNIK

Organizator:
FUNDACJA PROFIT MARATON
Data:
2019-07-13
Miejsce:
Sobieszów
Dystans:
102 km | Mapa trasy
Zgłoszonych:
163
Wystartowało:
143
Nie ukończyło:
34
Ukończyło:
109
Na trasie:
25
Pełne wyniki :
Wyniki uproszczone:
Wyniki nieoficjalne !!!
Klasyfikacje w punktach pomiarowych: Start | 16.5km | 18.5km | 47.1km | 58.4km | 63km | 68km | 84.8km | Meta
Klasyfikacje wg kategorii: Wszyscy | K-Open | M-Open | K18 | M18 | K20 | M20 | K30 | M30 | K40 | M40 | K50 | M50 | K60 | M60 | K70 | M70

MscZawodnikNumerKlubMiejscowośćKrajKategoriaMkatK/MCzas startuWysoki_Kamien
16.5km
Rozdroze
18.5km
Kark_Przelecz
47.1km
Bacowka_Karpacz
58.4km
Dom_Slaski
63km
Karpacz
68km
Kark_Przelecz
84.8km
Czas
netto
102km
Czas
brutto
102km
Różn.Tempo
min/km
Tempo
km/h
              
1JUDA Witold 1766JELENIA GÓRAM401M 100:00:0201:53:2802:04:2705:21:3006:38:3007:27:5907:55:1410:16:3911:51:42.0511:51:44.80 6:588.6
2KARWACZYŃSKI Roger 1765PIECHOWICEM301M 200:00:0301:53:2005:21:4306:40:3207:28:4607:56:3710:21:1112:05:18.2012:05:21.50+00:13:367:068.4
3BOROWCZYK Sebastian 1824KB DęBIECPOZNAŃM302M 300:00:0202:05:0005:26:4106:42:3607:29:2908:01:1810:27:4912:08:43.3012:08:45.95+00:17:017:088.4
4PISAREK Maciej 1777ŁOZINAM402M 400:00:0301:53:0002:05:0405:37:0607:02:1607:51:0308:29:0211:01:1712:44:43.3512:44:46.35+00:53:017:298
5DURKOWSKI Marcin 1779Oborygeni / Sklep 'W Formie' / InStinctOBORNIKI ŚLĄSKIEM303M 500:00:0305:58:5507:23:5108:14:4708:49:0111:26:1013:02:15.3513:02:18.65+01:10:337:407.8
6MAJCHER Piotr 1782Eskadra KrakówKRAKÓWM403M 600:00:0602:00:2405:56:0607:22:1708:20:1108:55:4611:36:1913:13:31.7513:13:38.50+01:21:537:467.7
7NOWAK Przemysław 1747KRAUSE RUNNING TEAMDZIERŻONIÓWM304M 700:00:0201:53:0505:39:3507:12:4108:08:1908:44:2211:31:2313:22:28.9513:22:31.60+01:30:467:527.6
8GWIŻDŻ Marcin 1775JAWORZNOM404M 800:00:0602:00:3002:14:1706:03:2908:26:0108:55:1111:37:2713:32:22.0513:32:28.40+01:40:437:577.5
9AID Patryk 1715Obozy GórskieWARSZAWAM201M 900:00:0202:05:1006:10:4207:36:2109:06:4812:02:4413:43:40.7013:43:43.20+01:51:588:047.4
10SKOCZYLAS Adrian 1858Skoczyliwlasy / Stay InsaneŚWIDNIKM305M 1000:00:0402:04:0602:21:4406:34:1608:09:4409:04:3809:38:4912:35:1913:54:32.0513:54:36.60+02:02:518:107.3
11WIECZOREK Łukasz 1700#NBRteam / Smashing PąpkinsSZAMOTUŁYM306M 1100:00:0402:04:5102:18:4706:14:1607:46:5308:47:1109:22:2912:14:1914:02:28.2014:02:32.65+02:10:478:157.3
12KOZAK Robert 1722Ronal Polska runWAŁBRZYCHM405M 1200:00:0502:02:3502:16:4806:10:1207:54:2808:51:1609:27:3412:13:2114:06:09.0014:06:14.65+02:14:298:177.2
13ŻUBIŃSKI Piotr 1735Accelerating PolandWARSZAWAM406M 1300:00:0402:00:0702:15:1906:08:3607:46:4708:44:1709:18:4612:19:0114:09:33.5514:09:38.10+02:17:538:197.2
14WŁOCHAL Robert 1760WAŁBRZYCHM307M 1400:00:0402:04:0102:19:3006:09:5107:41:4208:35:5509:17:0012:13:4914:13:12.9014:13:17.50+02:21:328:217.2
15JĘCEK Maciej 1711ŁÓDŹM308M 1500:00:0602:03:0006:11:3107:50:3008:48:0309:25:4312:13:2314:20:23.3014:20:30.05+02:28:458:267.1
16PADEWSKI Artur 1857Trail Runners JaworznoJAWORZNOM407M 1600:00:0501:59:4702:14:2206:17:1508:15:3409:13:1609:52:2712:58:5014:20:35.4514:20:40.55+02:28:558:267.1
17GALA Grzegorz 1818Schenker Technology Center RunnersSOCHACZEWM408M 1700:00:0301:59:4602:15:0306:03:3007:45:0008:42:4509:21:4212:28:0914:39:43.2014:39:47.00+02:48:028:377
18SOCZOMSKI Grzegorz 1742Chata Biegacza K34WROCŁAWM202M 1800:00:0202:06:0902:18:4406:09:5607:44:3508:34:1409:15:5512:47:0115:03:29.3015:03:32.25+03:11:478:516.8
19BORÓWKA Ryszard 1707GDYNIAM409M 1900:00:0601:59:5402:16:1706:23:5708:11:1309:13:3209:54:3613:05:1415:11:06.8015:11:13.70+03:19:288:556.7
20JĘDRACHOWICZ Maciej 1855Murasiątko / AWF Poznań / Drużyna SzpikuŁOWICZM309M 2000:00:0802:24:5802:42:5306:43:0208:26:1409:57:2113:08:5515:13:52.7515:14:01.15+03:22:168:576.7
21STACHOWIAK Adam 1743DĄBCZEM3010M 2100:00:1202:24:5102:42:4206:42:4408:32:3809:29:2310:10:0613:17:4615:14:59.1515:15:11.40+03:23:268:586.7
22SOSNOWSKI Michał 1823PGB Sportowa PaczkaCHORZÓWM4010M 2200:00:1102:16:1102:32:4706:48:4708:37:0409:31:3610:11:1413:16:2215:16:34.0515:16:45.90+03:25:018:596.7
23LUPKINS Vents 1822SMILTENEM203M 2300:00:0602:01:0802:18:0406:19:5307:57:3909:05:2309:49:2513:12:3815:19:03.7515:19:10.50+03:27:259:006.7
24ŁABUZ Sylwester 1807DZIERŻONIÓWM3011M 2400:00:0402:14:0602:29:0106:45:2408:37:0310:19:2513:33:1715:30:41.9515:30:46.25+03:39:019:076.6
25WYGANOWSKI Konrad 1754RUMIAM4011M 2500:00:0601:59:5902:16:1406:24:2508:11:1909:15:2009:56:3913:13:3515:31:41.7515:31:48.25+03:40:039:086.6
26ROKICKI Piotr 17485xm4POZNAŃM4012M 2600:00:0602:03:4402:19:0306:16:0608:00:1409:07:1009:52:1513:20:2915:34:40.8515:34:47.65+03:43:029:096.5
27NIEMIRO Dominika 1746Grupa Azoty PolicePOLICEK301K 100:00:0802:25:3802:42:4006:52:0608:38:4410:18:2613:31:2115:39:16.3515:39:25.00+03:47:409:126.5
28SZCZEPAŃSKI Andrzej 1845WILD SKUNKSZIELONA GÓRAM4013M 2700:00:0402:14:3502:28:3106:55:4508:52:5010:43:1813:30:2815:41:48.8015:41:53.45+03:50:089:146.5
29JANKOWSKI Sebastian 1724szwagry.plRADZYMINM3012M 2800:00:0702:15:3906:44:4008:45:4610:35:2213:51:2915:41:59.3015:42:06.75+03:50:219:146.5
30TYSZKA Dariusz 1745WARSZAWAM4014M 2900:00:1102:25:5002:42:3106:51:0708:45:3310:31:4213:45:5115:42:13.3015:42:25.00+03:50:409:146.5
31PILARSKI Tomasz 1706BOGATYNIAM3013M 3000:00:0402:14:1602:28:2806:48:5808:39:4010:18:5913:30:2815:44:52.1515:44:56.85+03:53:129:156.5
32WALCZUK Marcin 1829Sieradzbiega.plBRZEŹNIOM4015M 3100:00:0202:05:5706:24:3708:24:1910:01:5513:33:3115:52:57.3515:53:00.15+04:01:159:206.4
33MUCHACZOW Jacek 1787DRÄXLMAIERJELENIA GORAM4016M 3200:00:1102:00:0302:15:2106:25:4008:16:2010:01:4813:34:4215:53:46.6515:53:57.80+04:02:139:216.4
34NESTOROWICZ Marek 1763Klub Biegacza JURUND SzczytnoKĘTRZYNM4017M 3300:00:0602:11:2002:27:4406:53:5508:53:3410:45:1413:56:0115:58:34.3015:58:40.35+04:06:559:236.4
35PLOCH Sebastian 1719WROCŁAWM4018M 3400:00:0802:09:4602:26:3606:44:3808:32:3710:24:2013:47:3116:04:42.9516:04:51.00+04:13:069:276.3
36RAK Łukasz Bidon 1750GARBATKAM4019M 3500:00:1102:11:3302:28:5006:39:0108:25:3210:07:1013:37:1716:05:43.0516:05:54.90+04:14:109:286.3
37KANIA Piotr 1820WARSZAWAM4020M 3600:00:0802:11:1402:29:0006:40:5408:24:1810:03:1713:36:5516:05:57.8016:06:05.95+04:14:219:286.3
38ZAWOJAK Aleksander 1740WAŁBRZYCHM204M 3700:00:0502:33:5102:50:0607:10:4508:57:3810:36:1513:38:3316:07:13.6016:07:19.55+04:15:349:286.3
39BERNATOWICZ Ziemowit 1799UltrakrewGDYNIAM501M 3800:00:0702:25:0302:45:1507:12:4409:02:2410:53:4614:08:4916:13:04.3016:13:11.65+04:21:269:326.3
40CZYZEWSKI Sebastian 1705BYDGOSZCZM4021M 3900:00:0702:09:5802:26:1906:43:1008:28:5609:30:0610:11:4413:37:1516:21:55.2016:22:02.75+04:30:179:376.2
41MIESZKIAN Krystian 1812NOWY DWÓR MAZ.M4022M 4000:00:0402:39:0802:58:5807:33:5809:29:1911:17:0314:32:3616:34:12.7516:34:17.45+04:42:329:446.2
42SOWIK Marcin 1840TIME4RUNNINGTOMASZÓW MAZOWIECKIM502M 4100:00:0402:32:0807:06:4108:57:4710:51:2014:18:2616:44:07.0016:44:11.25+04:52:269:506.1
43STĘŻYCKI Mariusz 1761Żary Runners TeamŻARYM4023M 4200:00:1202:31:2202:49:3407:24:3609:24:5011:16:5114:32:4216:50:40.5516:50:53.00+04:59:089:546.1
44DRYWA Jakub 1844GDYNIAM205M 4300:00:1202:29:4602:51:1107:28:5809:21:4411:13:5714:36:5616:51:54.7516:52:07.55+05:00:229:556
45RATYŃSKI Wojciech 1846DROHICZYNM3014M 4400:00:1402:33:2502:53:0007:28:4309:14:1211:03:4614:31:3016:51:54.1016:52:08.10+05:00:239:556
46WALACIK Adam 1838WIERUSZÓWM206M 4500:00:1502:05:5002:23:0806:56:0408:57:1111:03:3014:44:5717:02:10.2017:02:25.30+05:10:4010:016
47BOBER Jakub 1851LESZNOM207M 4600:00:1002:11:2002:29:5506:49:1208:53:1710:52:2614:30:1117:02:52.5517:03:03.25+05:11:1810:016
48KUREK Jarosław 1785Endorfina WschowaWSCHOWAM3015M 4700:00:0602:30:0302:52:4507:37:4309:34:0611:33:0314:47:0917:04:21.4517:04:27.95+05:12:4310:026
49GŁUCHACZKA Justyna 1859klub 42,2 LęborkLĘBORKK302K 200:00:1102:13:2907:33:0909:28:1411:15:1914:49:2717:20:57.0517:21:08.05+05:29:2310:125.9
50STEFANIAK Marcin 1702ŁĘCZYCEM4024M 4800:00:0902:17:1502:32:3707:33:1209:28:1011:15:2114:49:2817:20:58.3017:21:08.25+05:29:2310:125.9
51GOSTYŃSKI Krzysztof 1825KRAKÓWM4025M 4900:00:1402:32:0202:50:2107:37:3709:32:1811:21:2314:53:2117:22:35.8517:22:50.15+05:31:0510:135.9
52PIETRZAK Daniel 1806PRUSZKÓW TEAMPRUSZKÓWM3016M 5000:00:1302:39:4207:50:2309:45:3411:43:1315:14:2317:26:25.1017:26:38.75+05:34:5310:155.8
53KOWALCZYK Bartłomiej Kowalczyk 1757WARSAWM208M 5100:00:1002:11:2502:32:1307:03:3709:03:5710:55:5614:45:0517:26:30.5017:26:41.15+05:34:5610:155.8
54KWAŚNIEWSKI Mariusz 1791STARGARDM3017M 5200:00:0702:32:5602:52:2107:24:1109:12:0711:05:4314:14:2017:31:15.5017:31:22.60+05:39:3710:185.8
55MICHALSKI Krzysztof 1788Vege RunnersÅKERSBERGAM4026M 5300:00:1402:16:2002:32:2607:08:4509:03:2810:56:0914:48:3617:35:52.5517:36:06.60+05:44:2110:215.8
56PARA Jakub 1780Lesz NO Limits RunnersLESZNOM4027M 5400:00:1002:30:4702:47:0907:46:3909:52:0412:00:0715:40:5217:51:50.0017:52:00.25+06:00:1510:305.7
57DZIUBA Piotr 1786WROCŁAWM4028M 5500:00:2202:22:3602:41:2607:26:4809:39:3711:42:1115:25:5617:52:25.8017:52:48.45+06:01:0310:305.7
58JUCHA Jacek 1816GOCZAŁKOWICE ZDRÓJM4029M 5600:00:0602:54:1103:11:0007:59:0010:06:0211:56:3915:32:4617:53:34.6017:53:41.00+06:01:5610:315.7
59BUDZICH Wojciech 1731TKKF PROMYK CIECHANÓWCIECHANÓWM4030M 5700:00:1502:27:3502:43:4707:33:4609:33:4511:40:1215:20:5317:55:56.6517:56:11.65+06:04:2610:325.7
60SŁOMOWICZ Bartosz 1853ALTOM GNIEZNOGNIEZNOM4031M 5800:00:0902:32:4302:52:1307:25:5209:21:2711:12:0515:08:4117:57:36.1017:57:45.25+06:06:0010:335.7
61STRZELECKI Jacek 1803GDAŃSKM4032M 5900:00:1002:23:1002:43:0207:26:4709:31:2311:44:0315:45:4017:59:48.9017:59:59.65+06:08:1410:355.7
62ARKUSZYŃSKI Paweł 1714TIME4RUNNINGTOMASZÓW MAZOWIECKIM4033M 6000:00:0502:28:0602:47:4407:45:2509:39:2411:49:5515:26:1118:00:36.7018:00:42.15+06:08:5710:355.7
63KWAŚNIK Błażej 1756Dla Oluni :*WROCŁAWM3018M 6100:00:1102:25:1403:00:0007:52:0309:58:2211:58:3015:33:1818:01:00.8018:01:12.55+06:09:2710:355.7
64SĘK Maciej 1721WROCŁAWM3019M 6200:00:1102:41:0603:00:0707:52:0509:58:3011:58:4115:33:2218:01:00.8518:01:12.55+06:09:2710:355.7
65GRODZKI Tomasz 1835Ultras z nad morzaDARŁOWOM4034M 6300:00:0902:46:0703:06:1108:00:4809:59:4911:58:4915:33:1718:04:04.9518:04:14.75+06:12:2910:375.6
66JANOWSKA Anna 1848Drużyna WilkaOLSZTYNK303K 300:00:1002:36:3602:55:4307:38:2009:36:1911:42:2215:27:3818:04:16.3018:04:26.65+06:12:4110:375.6
67ANDRZEJEWSKI Tomasz 1713OEX RUNNERS TEAMSULECHÓWM209M 6400:00:1302:50:5803:13:5208:02:0910:04:3412:02:0115:38:4418:04:44.0518:04:57.80+06:13:1310:385.6
68KOCIK Marcin 1772Alior Running TeamWILKSZYNM4035M 6500:00:1202:29:0802:47:0207:40:5509:58:5212:07:0515:59:3818:05:32.8518:05:45.65+06:14:0010:385.6
69RYBIŃSKI Radosław 1796Tyberian TeamLEGNICAM2010M 6600:00:0802:12:1402:27:5907:20:5509:24:1611:16:2915:04:3418:13:10.6518:13:19.15+06:21:3410:435.6
70GAJEWSKA Izabella 1733PRUSZKÓWK304K 400:00:1202:41:1502:59:3108:03:5710:07:4812:17:2515:57:3018:16:41.4018:16:53.85+06:25:0910:455.6
71SCHRODER Patryk 1744ZIELONA GÓRAM4036M 6700:00:1202:39:3402:59:3407:56:1209:59:2212:03:5815:49:1718:17:45.0518:17:57.25+06:26:1210:455.6
72KOZŁOWSKI Marek 1774biegamdlazdrowia.plJAWORM4037M 6800:00:0602:48:2203:10:0908:15:3510:20:4312:23:0215:55:2718:21:54.6018:22:01.40+06:30:1610:485.6
73LECH Agnieszka 1730ŚWIEBODZICEK401K 500:00:0602:49:5603:10:1308:15:3710:20:4712:23:0415:55:3018:21:57.2018:22:03.75+06:30:1810:485.6
74BEDNARZ Krzysztof 1805JELENIA GÓRAM3020M 6900:00:1102:20:3602:38:2207:37:3809:43:0011:53:2515:47:1818:23:43.0018:23:54.25+06:32:0910:495.5
75FIGURA Marcin 1860Kwidzyn RunKWIDZYNM4038M 7000:00:1502:55:0203:12:1308:12:0410:20:1712:18:1416:05:0518:23:41.3018:23:56.95+06:32:1210:495.5
76JÓZEFKO Arkadiusz 1819KaszëbëGDYNIAM3021M 7100:00:0302:11:4508:11:3710:13:3412:08:2915:54:5118:24:30.1018:24:33.40+06:32:4810:495.5
77HAWRYLISZYN Jan 1847ŁOZINAM3022M 7200:00:0402:13:4502:30:4307:10:2509:21:4611:16:5015:43:2018:33:54.3518:33:59.20+06:42:1410:555.5
78KOWALCZYK Grzegorz 1836LUBLINM4039M 7300:00:0802:39:2002:58:3108:05:3110:12:1112:25:4616:28:0118:49:24.9018:49:33.05+06:57:4811:045.4
79DEINIUK Roman 1834WARSZAWAM2011M 7400:00:1302:29:2002:49:4607:50:3810:10:0012:07:2916:13:4318:51:47.5018:52:00.95+07:00:1611:055.4
80DĄBROWSKI Jacek 1758Dąbrowski BrothersWILCZYCEM3023M 7500:00:0402:26:4102:43:0407:35:2809:43:4811:56:1116:08:2018:52:52.6018:52:57.05+07:01:1211:065.4
81STASZAK Radosław 1839124. Batalion Lekkiej Piechoty - ŚremZŁOTNIKIM4040M 7600:00:0502:38:3602:58:0908:11:3510:12:2212:12:0216:13:4518:54:32.7018:54:38.65+07:02:5311:075.4
82GAŁKA Grzegorz 1833SZYMANÓWM4041M 7700:00:1002:27:5702:44:1607:44:3310:06:4612:23:3016:30:5818:56:46.2018:56:56.80+07:05:1211:085.4
83ROLLA Dorian 1734WARZYMICEM4042M 7800:00:0602:34:5902:54:0708:07:4010:10:1912:21:5816:04:5419:10:34.2019:10:40.75+07:18:5511:165.3
84ZIELIŃSKA Justyna 1811LUBOŃK402K 600:00:1503:04:5803:23:5708:28:2510:38:1812:44:2916:34:3119:14:44.3519:14:59.35+07:23:1411:195.3
85GUZEK Agnieszka 1723ZIELONKAK403K 700:00:1103:07:3903:29:1808:33:2410:39:3812:40:3316:42:4319:25:13.9019:25:25.25+07:33:4011:255.3
86SĘK Zofia 1828WARSZAWAK404K 800:00:1302:44:5103:01:5108:07:0610:26:3612:42:1916:53:0619:25:12.0019:25:25.45+07:33:4011:255.3
87RÓŻYCKI Konrad 1826WARSZAWAM503M 7900:00:0703:10:4909:04:5411:05:3512:58:0616:49:4419:26:19.9519:26:27.50+07:34:4211:265.2
88WIERUSZEWSKI Mateusz 1726No Excuses Team/Maratończyk PoznańGNIEZNOM3024M 8000:00:0902:39:1003:03:4008:04:3510:21:2112:38:3716:43:5419:32:46.8019:32:56.25+07:41:1111:295.2
89SZYMANKIEWICZ Kalina 1768GDYNIAK405K 900:00:0402:28:3302:48:2108:04:1910:20:3512:25:1316:28:3719:34:15.7019:34:20.40+07:42:3511:305.2
90BIAŁECKI Krzysztof 1831MYŚLIBÓRZM4043M 8100:00:2003:03:4103:23:0808:13:2310:23:3612:26:5616:28:2819:34:00.2019:34:20.75+07:42:3511:305.2
91FLASIŃSKI Michał 1804GLIWICEM3025M 8200:00:1302:55:0603:15:4308:29:1110:27:2612:37:4216:34:1519:37:19.7519:37:32.85+07:45:4811:325.2
92JANKIEWICZ Maciej 1856Spójnia Białe BłotaLĘBORKM3026M 8300:00:0902:14:2207:38:2909:43:4812:03:0216:28:4219:41:03.6019:41:13.35+07:49:2811:345.2
93BARTOSIEWICZ Adam 1849OCR PolskaGRYFINOM4044M 8400:00:0802:39:3102:59:1908:16:3310:30:3912:46:2116:46:4219:42:07.9019:42:16.15+07:50:3111:355.2
94BUKALSKI Zbigniew 1771LUBOŃM4045M 8500:00:1003:05:1903:24:4708:36:2410:47:3712:51:5816:49:4319:46:42.2519:46:53.10+07:55:0811:385.2
95BIENIEK Michał 1863WROCŁAWM4046M 8600:00:1703:00:4203:18:2108:46:3311:09:3013:01:4016:59:3219:50:25.1019:50:42.30+07:58:5711:405.1
96WOYCZYŃSKA Angelina 1737LESZNOK305K 1000:00:1302:51:4803:13:2608:41:0810:54:5612:52:3717:21:3719:56:33.8519:56:47.25+08:05:0211:435.1
97SZAWELSKA Ewa 1751LESZNOK406K 1100:00:1302:52:1103:13:3008:41:0710:55:0212:52:3617:21:3819:56:33.8519:56:47.55+08:05:0211:435.1
98GNIEWEK Dariusz 1781JELENIA GÓRAM504M 8700:00:1102:47:0403:08:2508:32:0610:47:2512:56:3617:10:5719:58:27.4519:58:38.50+08:06:5311:445.1
99DUDEK Bartłomiej 184312tri.plWARSZAWAM3027M 8800:00:1702:34:2402:55:5108:01:2110:31:2912:39:0316:57:2619:59:06.7519:59:24.30+08:07:3911:455.1
100KASPRZYK Adrian 1767Lesz No Limits RunnersLESZNOM4047M 8900:00:0002:33:5102:59:5117:19:0820:00:43.1020:00:43.10+08:08:5811:465.1
101KLUZA-HOWLL Lila 1861GRYFINOK407K 1200:00:1402:56:4403:18:2109:00:3411:09:1713:02:3617:17:3220:26:48.0020:27:02.55+08:35:1712:015
102MATUSZEWSKA Małgorzata 1708Runner's Power ŚremŚREMK408K 1300:00:1602:57:2903:16:3308:49:3811:03:5912:59:0817:34:3220:27:44.6020:28:00.75+08:36:1512:025
103KACZMAREK Mirosław 1755ŚREMM2012M 9000:00:1602:58:0003:16:3708:49:3511:05:3512:58:3217:34:3220:27:44.1520:28:00.85+08:36:1612:025
104SZAFRANIEC Artur 1762LABOSPOSRTWARSZAWAM4048M 9100:00:1702:57:1803:16:4208:59:5411:05:2912:57:0917:24:2520:27:43.4020:28:01.00+08:36:1612:025
105RATAJCZAK Dariusz 1759Hernik TeamDOLSKM4049M 9200:00:1602:58:1503:16:2608:42:3110:58:5412:53:4117:17:4520:31:09.4020:31:25.95+08:39:4112:045
106WŁODARCZYK Krzysztof 17413Team MPEC KoninKONINM4050M 9300:00:0802:52:4803:13:1308:42:0311:10:2712:49:0517:24:1320:37:10.3020:37:18.75+08:45:3312:074.9
107PAWLAK Maciej 17393Team Konin MPEC-KoninKONINM4051M 9400:00:0802:52:2903:13:1708:42:0211:10:4412:57:4717:24:1420:37:10.2520:37:19.05+08:45:3412:074.9
108GONCHAROV Andrei 1738WROCLAWM4052M 9500:00:0003:05:2303:24:1911:03:2512:58:3520:46:49.3520:46:49.35+08:55:0412:134.9
109SZRETER Paweł 1814sts cargoŁÓDŹM505M 9600:00:1802:50:1703:12:3208:39:3411:01:2513:01:3917:35:1020:47:13.6520:47:32.25+08:55:4712:134.9
110SZUKALSKI Aleksander 1808Eisen+Stahl Running TeamWROCLAWM3028M 9700:00:0702:44:0503:06:0308:10:2510:21:1712:25:12+04:30:0310:575.5
111FRIEDEL-WOLFROM Anette 1866WEZAREABERLINK501K 1400:00:1802:58:2503:23:0508:58:1011:04:2413:12:24+05:17:2611:395.1
112PATEREK Agata 1794GDAŃSKK409K 1500:00:1602:54:1003:14:0308:58:1111:08:5213:12:59+05:17:5911:395.1
113BUDYCH-GÓRZNA Magdalena 1850GO! GOWARZEWOGOWARZEWOK4010K 1600:00:1502:58:3703:18:1408:42:3911:02:28+04:24:1111:205.3
114KLIMA Dariusz 1827SIEMIANOWICE ŚLĄSKIEM3029M 9800:00:1103:08:5203:29:2908:41:4111:02:39+04:24:1811:205.3
115JAGODZIŃSKI Paweł 1736KONINM4053M 9900:00:0802:53:0003:13:2108:42:1311:12:31+04:34:0711:305.2
116JAROSŁAWSKI Mariusz 1710Biegnij Oławo, Termy Jakuba - Oławski Park WodnyOŁAWAM4054M 10000:00:0903:10:2603:34:4109:20:1611:49:35+05:11:1212:094.9
117KUBIAK Marcin 1841Joy DivisionPOZNAŃM4055M 10100:00:0603:14:5303:37:0409:23:3011:50:16+05:11:5012:094.9
118STANISŁAWAKA-KUBIAK Maia 1842Joy DivisionPOZNAŃK4011K 1700:00:0803:15:5103:37:0609:23:2911:50:19+05:11:5512:094.9
119FIJAŁKOWSKI Wojciech 1725monar-graczeWROCŁAWM506M 10200:00:1303:11:3003:37:0509:25:2812:05:03+05:26:4412:244.8
120FRIEDEL Andreas 1865WEZAREABERLINM507M 10300:00:1802:59:3903:23:0109:34:5712:25:49+05:47:3512:464.7
121ZAWIŚLAK Dorota 1792GDAŃSKK306K 1800:00:1703:21:2103:55:4510:33:32+05:12:1713:274.5
122MURAWSKI Maciej 1830Miki TeamGDAŃSKM4056M 10400:00:0602:32:21+00:27:588:147.3
123BIENIECKA Anna 1753Ok rzeznikGLIWICEK4012K 1900:00:0602:21:2402:39:08+00:34:458:367
124HENSCHKE Adam 1813KOMORNIKIM3030M 10500:00:0702:38:0402:54:02+00:49:409:246.4
125HOWIL Waldemar 1749www.biegowekaizen.plGRYFINOM4057M 10600:00:1602:38:4902:58:40+00:54:279:396.2
126OLEJNIK Piotr 1832Champion of DietologistsWROCŁAWM3031M 10700:00:0002:59:34+00:55:059:426.2
127BOLECHOWSKI Fabian 1717SULECHÓWM2013M 10800:00:1502:50:4703:13:53+01:09:3910:285.7
128FRĄCZEK Marika 1720BrakBERLINK201K 2000:00:1102:05:4503:20:14+01:15:5610:495.5
129KAWAŁKO Ryszard 1727Zbyt Wolny RyśLEGNICAM508M 10900:00:0903:13:1903:38:47+01:34:2711:495.1
130ZAKRZEWSKA Katarzyna 1852#BereznowskaTrenujeMIŁKÓWK4013K 2100:00:0003:21:3103:55:58+01:51:2912:454.7
131 1874  100:00:0001:52:58+6:508.8
132DRAGANEK Jakub 1776MirumeeWROCŁAWM3032M 11000:00:0002:05:09+00:11:397:357.9
133TOPOLEWSKI Łukasz 1837Social EliteMYSŁAKOWICEM2014M 11100:00:0402:34:43+00:41:179:226.4
134ŁOZIŃSKI Łukasz 1773TT SzczecinSZCZECINM4058M 11200:00:08   
GORALEWSKI Mateusz 1764Dziki MatiZABORÓWM30DNF02:43:41 DNF03:00:07 DNF07:47:38 DNF09:58:43 DNF DNF12:25:01 DNF DNF DNF DNF--
BIELECKI Sławomir 1793KRAKOWM50DNF02:45:59 DNF03:02:44 DNF07:51:09 DNF DNF DNF DNF DNF DNF DNF--
CHOMICZEWSKI Witold 1701ŁÓDŹM30DNF02:30:59 DNF02:48:46 DNF08:10:52 DNF DNF DNF DNF DNF DNF DNF--
MECAN Magdalena 1703DR. SCHNEIDER RUNNING TEAMBYSTRZYCAK20DNF02:44:23 DNF03:13:38 DNF08:59:56 DNF DNF DNF DNF DNF DNF DNF--
PALUSZKIEWICZ Rafał 1728SPP TeamLUBOŃM40DNF02:58:58 DNF03:18:39 DNF09:25:17 DNF DNF DNF DNF DNF DNF DNF--
GÓRECKI Krzysztof 1732botime.plLUBOŃM30DNF02:59:14 DNF03:18:42 DNF09:25:18 DNF DNF DNF DNF DNF DNF DNF--
KWIECIEŃ Zbigniew 1789FaudanaTYCHYM60DNF02:51:31 DNF03:14:13 DNF10:02:32 DNF DNF DNF DNF DNF DNF DNF--
KOSEL Szczepan 1821KuracjuszeWROCŁAWM30DNF02:43:01 DNF DNF DNF DNF DNF DNF DNF DNF DNF--
GAJEWSKI Marcin 1729PRUSZKÓWM30DNF DNF DNF DNF DNF DNF DNF DNF DNF DNF--
Znaleziono 143 wynik(ów)